sim
Sign-in with your pilot id or email,
or register
Callsign
Passwort

Schedule Details

Flight Number: DLH2265 (2)
Departure: Marseille Provence Airport (LFML) at 18:45
Arrival: Munich Airport (EDDM) at 20:20
Route: Lufthansa Passenger Schedule. Enter filed route here before submitting Pirep.

Weather Information
Getting current METAR information for LFML 181300Z AUTO 19016KT CAVOK 29/18 Q1017 NOSIG
Getting current METAR information for EDDM 181320Z 08011KT CAVOK 19/10 Q1024 NOSIG

Schedule Frequency

Route Map